Time;durP1;ratioP1;P1;durP2;ratioP2;P2;SDS_P1;SDS_P2;PMS_P1;PMS_P2;Temp;Humidity;BMP_temperature;BMP_pressure;BME280_temperature;BME280_humidity;BME280_pressure;Samples;Min_cycle;Max_cycle;Signal;HPM_P1;HPM_P2
2023/04/10 00:01:45;;;;;;;;;;;;;;;9.17;58.68;94717.06;5064780;23;19969;-77
2023/04/10 00:03:47;;;;;;;;;;;;;;;9.16;58.63;94722.44;5064465;23;20380;-77
2023/04/10 00:05:48;;;;;;;;;;;;;;;9.14;58.39;94722.63;5064384;23;19927;-78
2023/04/10 00:07:50;;;;;;;;;;;;;;;9.11;58.25;94716.84;5064652;23;19920;-77
2023/04/10 00:09:51;;;;;;;;;;;;;;;9.02;57.40;94716.78;5039200;23;19969;-77
2023/04/10 00:11:53;;;;;;;;;;;;;;;9.00;57.94;94721.31;5063222;23;19925;-76
2023/04/10 00:13:54;;;;;;;;;;;;;;;8.95;57.25;94717.53;5039802;23;19925;-77
2023/04/10 00:15:57;;;;;;;;;;;;;;;8.91;56.98;94717.00;5063646;23;19920;-83
2023/04/10 00:17:58;;;;;;;;;;;;;;;8.81;58.01;94706.59;5064043;23;19921;-76
2023/04/10 00:20:00;;;;;;;;;;;;;;;8.88;57.24;94712.06;5065069;23;20448;-77
2023/04/10 00:22:01;;;;;;;;;;;;;;;8.97;57.52;94702.50;5038824;23;19921;-77
2023/04/10 00:24:04;;;;;;;;;;;;;;;8.99;57.28;94704.03;5064316;23;20466;-75
2023/04/10 00:26:05;;;;;;;;;;;;;;;9.04;57.08;94705.38;5064742;23;20471;-78
2023/04/10 00:28:07;;;;;;;;;;;;;;;9.10;56.02;94705.59;5064493;23;20445;-75
2023/04/10 00:30:09;;;;;;;;;;;;;;;9.11;55.85;94702.00;5063095;23;19927;-79
2023/04/10 00:32:10;;;;;;;;;;;;;;;9.06;55.48;94698.19;5064191;23;19997;-80
2023/04/10 00:34:12;;;;;;;;;;;;;;;9.05;54.74;94697.34;5064982;23;19929;-79
2023/04/10 00:36:15;;;;;;;;;;;;;;;9.10;54.80;94700.34;5064962;23;19949;-78
2023/04/10 00:38:16;;;;;;;;;;;;;;;9.15;54.93;94703.34;5064214;23;20186;-76
2023/04/10 00:40:18;;;;;;;;;;;;;;;9.19;53.48;94701.25;5064486;23;19920;-76
2023/04/10 00:42:19;;;;;;;;;;;;;;;9.18;53.12;94699.59;5065062;23;19925;-77
2023/04/10 00:44:21;;;;;;;;;;;;;;;9.18;52.87;94696.97;5064784;23;20342;-77
2023/04/10 00:46:23;;;;;;;;;;;;;;;9.18;52.33;94691.75;5065086;23;19928;-77
2023/04/10 00:48:25;;;;;;;;;;;;;;;9.13;51.90;94697.44;5038073;23;19929;-77
2023/04/10 00:50:26;;;;;;;;;;;;;;;9.14;51.79;94701.72;5039190;23;19927;-76
2023/04/10 00:52:28;;;;;;;;;;;;;;;9.14;51.21;94706.09;5038513;23;19922;-76
2023/04/10 00:54:30;;;;;;;;;;;;;;;9.13;51.22;94699.22;5064300;23;20217;-77
2023/04/10 00:56:31;;;;;;;;;;;;;;;9.19;50.87;94698.63;5038912;23;19940;-76
2023/04/10 00:58:33;;;;;;;;;;;;;;;9.16;50.24;94698.91;5037981;23;19929;-79
2023/04/10 01:00:34;;;;;;;;;;;;;;;9.01;50.53;94696.84;5063865;23;20360;-77
2023/04/10 01:02:36;;;;;;;;;;;;;;;8.84;50.58;94695.06;5038118;23;20328;-77
2023/04/10 01:04:38;;;;;;;;;;;;;;;8.81;50.67;94695.34;5064686;23;19921;-77
2023/04/10 01:06:42;;;;;;;;;;;;;;;8.86;51.45;94687.06;5064593;23;19932;-77
2023/04/10 01:08:44;;;;;;;;;;;;;;;8.72;51.76;94693.63;5063893;23;20019;-76
2023/04/10 01:10:47;;;;;;;;;;;;;;;8.63;53.06;94689.28;5064058;23;19972;-76
2023/04/10 01:12:49;;;;;;;;;;;;;;;8.65;54.06;94693.38;5038612;23;20017;-77
2023/04/10 01:14:56;;;;;;;;;;;;;;;8.71;54.43;94681.50;5063530;23;19921;-75
2023/04/10 01:17:09;;;;;;;;;;;;;;;8.77;55.38;94688.75;5037131;23;19988;-76
2023/04/10 01:19:29;;;;;;;;;;;;;;;8.82;55.66;94687.34;5039096;23;19925;-77
2023/04/10 01:21:30;;;;;;;;;;;;;;;8.93;55.87;94688.94;5064102;23;20000;-72
2023/04/10 01:23:50;;;;;;;;;;;;;;;8.97;56.20;94689.44;5016500;23;20310;-72
2023/04/10 01:25:55;;;;;;;;;;;;;;;8.94;56.69;94684.53;5066144;23;19972;-72
2023/04/10 01:28:10;;;;;;;;;;;;;;;8.98;56.12;94691.09;5065696;23;19921;-71
2023/04/10 01:30:14;;;;;;;;;;;;;;;9.07;56.65;94686.75;5064511;23;19921;-71
2023/04/10 01:32:16;;;;;;;;;;;;;;;9.10;56.73;94689.91;5064884;23;19925;-70
2023/04/10 01:34:19;;;;;;;;;;;;;;;9.12;57.26;94690.56;5039630;23;20319;-72
2023/04/10 01:36:22;;;;;;;;;;;;;;;9.16;56.99;94683.25;5039995;23;19925;-72
2023/04/10 01:38:24;;;;;;;;;;;;;;;9.13;57.21;94681.75;5065130;23;20218;-73
2023/04/10 01:40:25;;;;;;;;;;;;;;;9.13;57.26;94688.78;5038606;23;19956;-73
2023/04/10 01:42:30;;;;;;;;;;;;;;;9.13;57.31;94683.56;5064529;23;19925;-71
2023/04/10 01:44:31;;;;;;;;;;;;;;;9.07;57.35;94686.75;5038198;23;19928;-72
2023/04/10 01:46:33;;;;;;;;;;;;;;;9.04;57.40;94684.47;5039232;23;20000;-72
2023/04/10 01:48:34;;;;;;;;;;;;;;;9.04;57.45;94685.28;5038565;23;20588;-72
2023/04/10 01:50:36;;;;;;;;;;;;;;;9.07;57.14;94679.72;5064090;23;20003;-70
2023/04/10 01:52:38;;;;;;;;;;;;;;;9.10;55.81;94682.06;5064583;23;20007;-72
2023/04/10 01:54:39;;;;;;;;;;;;;;;9.09;56.22;94683.03;5016174;23;19925;-73
2023/04/10 01:56:41;;;;;;;;;;;;;;;9.01;55.63;94681.19;5039373;23;19921;-72
2023/04/10 01:58:42;;;;;;;;;;;;;;;9.04;55.96;94687.06;5064241;23;20411;-72
2023/04/10 02:00:44;;;;;;;;;;;;;;;8.98;55.93;94686.69;5038883;23;19929;-72
2023/04/10 02:02:45;;;;;;;;;;;;;;;8.97;56.77;94685.06;5038842;23;20348;-72
2023/04/10 02:04:50;;;;;;;;;;;;;;;8.84;56.59;94684.63;5064967;23;19925;-69
2023/04/10 02:06:55;;;;;;;;;;;;;;;8.80;56.73;94680.66;5040458;23;19951;-73
2023/04/10 02:09:35;;;;;;;;;;;;;;;8.77;57.43;94676.53;5066130;23;20304;-72
2023/04/10 02:11:41;;;;;;;;;;;;;;;8.64;58.08;94683.91;4990926;23;19921;-72
2023/04/10 02:13:43;;;;;;;;;;;;;;;8.58;58.14;94672.28;4991172;23;19949;-72
2023/04/10 02:15:45;;;;;;;;;;;;;;;8.60;57.82;94667.72;4990140;23;19978;-72
2023/04/10 02:17:47;;;;;;;;;;;;;;;8.70;58.60;94669.44;5038030;23;19996;-70
2023/04/10 02:19:48;;;;;;;;;;;;;;;8.78;58.11;94669.53;5039921;23;20281;-71
2023/04/10 02:21:50;;;;;;;;;;;;;;;8.89;57.64;94666.69;5039913;23;19921;-71
2023/04/10 02:23:51;;;;;;;;;;;;;;;8.95;57.27;94660.88;5015736;23;20428;-72
2023/04/10 02:25:55;;;;;;;;;;;;;;;9.03;56.84;94662.72;5039419;23;19928;-71
2023/04/10 02:27:57;;;;;;;;;;;;;;;9.07;55.93;94651.00;5065423;23;19929;-71
2023/04/10 02:29:59;;;;;;;;;;;;;;;9.10;56.00;94647.25;5038623;23;19977;-70
2023/04/10 02:32:01;;;;;;;;;;;;;;;9.08;56.01;94651.81;5064228;23;19929;-70
2023/04/10 02:34:02;;;;;;;;;;;;;;;8.91;55.13;94648.25;5039233;23;20376;-71
2023/04/10 02:36:04;;;;;;;;;;;;;;;8.73;55.33;94643.00;5065406;23;19928;-71
2023/04/10 02:38:06;;;;;;;;;;;;;;;8.70;56.28;94648.53;5039326;23;19969;-72
2023/04/10 02:40:08;;;;;;;;;;;;;;;8.69;55.93;94649.50;5065289;23;19925;-72
2023/04/10 02:42:09;;;;;;;;;;;;;;;8.47;56.17;94641.13;5065599;23;20019;-76
2023/04/10 02:44:11;;;;;;;;;;;;;;;8.43;56.28;94645.00;5065362;23;19967;-76
2023/04/10 02:46:13;;;;;;;;;;;;;;;8.24;57.29;94640.72;5064571;23;20045;-76
2023/04/10 02:48:15;;;;;;;;;;;;;;;8.11;57.43;94646.28;5064834;23;20363;-77
2023/04/10 02:50:16;;;;;;;;;;;;;;;8.03;58.53;94643.56;5065395;23;19948;-75
2023/04/10 02:52:18;;;;;;;;;;;;;;;7.96;58.76;94639.91;5065283;23;19921;-71
2023/04/10 02:54:20;;;;;;;;;;;;;;;7.67;60.00;94645.22;5065646;23;19955;-79
2023/04/10 02:56:22;;;;;;;;;;;;;;;7.65;59.92;94639.31;5065756;23;19929;-79
2023/04/10 02:58:23;;;;;;;;;;;;;;;7.68;60.34;94629.44;5064749;23;19964;-77
2023/04/10 03:00:26;;;;;;;;;;;;;;;7.69;60.12;94638.88;5064061;23;19988;-77
2023/04/10 03:02:27;;;;;;;;;;;;;;;7.79;60.16;94631.03;5038385;23;19955;-78
2023/04/10 03:04:30;;;;;;;;;;;;;;;7.90;59.69;94633.47;5065496;23;19996;-76
2023/04/10 03:06:32;;;;;;;;;;;;;;;8.05;58.87;94628.59;5065026;23;20371;-75
2023/04/10 03:08:34;;;;;;;;;;;;;;;8.21;58.84;94622.72;5065675;23;19936;-77
2023/04/10 03:10:35;;;;;;;;;;;;;;;8.36;58.41;94628.25;5065115;23;19921;-79
2023/04/10 03:12:37;;;;;;;;;;;;;;;8.49;58.05;94627.94;5040141;23;19921;-77
2023/04/10 03:14:39;;;;;;;;;;;;;;;8.44;57.89;94624.97;5064742;23;19952;-77
2023/04/10 03:16:41;;;;;;;;;;;;;;;8.33;58.77;94632.00;5064397;23;19945;-78
2023/04/10 03:18:42;;;;;;;;;;;;;;;8.11;59.58;94635.00;5064979;23;19976;-75
2023/04/10 03:20:44;;;;;;;;;;;;;;;7.99;60.72;94639.59;5039736;23;19922;-78
2023/04/10 03:22:45;;;;;;;;;;;;;;;7.89;60.74;94637.00;5065690;23;19952;-78
2023/04/10 03:24:47;;;;;;;;;;;;;;;7.76;60.42;94636.53;5039725;23;20423;-77
2023/04/10 03:26:49;;;;;;;;;;;;;;;7.76;60.68;94639.94;5065605;23;19949;-77
2023/04/10 03:28:51;;;;;;;;;;;;;;;7.78;60.88;94643.22;5065179;23;20344;-77
2023/04/10 03:30:52;;;;;;;;;;;;;;;7.70;61.48;94637.09;5038982;23;20341;-76
2023/04/10 03:32:54;;;;;;;;;;;;;;;7.67;61.46;94642.59;5063315;23;19921;-78
2023/04/10 03:34:56;;;;;;;;;;;;;;;7.47;62.00;94642.66;5064068;23;19944;-77
2023/04/10 03:36:57;;;;;;;;;;;;;;;7.42;62.80;94644.03;5038395;23;19977;-75
2023/04/10 03:38:59;;;;;;;;;;;;;;;7.43;63.47;94646.50;5064040;23;20327;-78
2023/04/10 03:41:01;;;;;;;;;;;;;;;7.39;63.80;94645.97;5064159;23;19921;-75
2023/04/10 03:43:02;;;;;;;;;;;;;;;7.51;63.51;94646.63;5063703;23;19928;-76
2023/04/10 03:45:05;;;;;;;;;;;;;;;7.52;63.76;94642.25;5063644;23;19925;-73
2023/04/10 03:47:06;;;;;;;;;;;;;;;7.53;63.67;94644.72;5063094;23;20260;-72
2023/04/10 03:49:08;;;;;;;;;;;;;;;7.58;63.55;94650.31;5065032;23;19925;-76
2023/04/10 03:51:10;;;;;;;;;;;;;;;7.49;63.99;94647.75;5065444;23;19932;-78
2023/04/10 03:53:11;;;;;;;;;;;;;;;7.47;64.36;94650.50;5064974;23;20057;-77
2023/04/10 03:55:17;;;;;;;;;;;;;;;7.37;65.14;94647.88;5038703;23;19921;-79
2023/04/10 03:57:20;;;;;;;;;;;;;;;7.25;67.15;94656.00;5040373;23;20008;-79
2023/04/10 03:59:21;;;;;;;;;;;;;;;7.13;67.71;94661.38;5039734;23;19996;-79
2023/04/10 04:01:34;;;;;;;;;;;;;;;6.90;68.84;94665.22;5066056;23;19928;-78
2023/04/10 04:03:36;;;;;;;;;;;;;;;6.87;69.18;94666.31;5066640;23;20497;-77
2023/04/10 04:05:37;;;;;;;;;;;;;;;6.84;69.43;94661.41;5041703;23;19945;-80
2023/04/10 04:07:39;;;;;;;;;;;;;;;6.83;69.69;94674.56;5067975;23;20951;-78
2023/04/10 04:09:41;;;;;;;;;;;;;;;6.98;68.78;94668.78;5066119;23;19921;-77
2023/04/10 04:11:43;;;;;;;;;;;;;;;7.10;68.62;94666.88;5064956;23;20209;-75
2023/04/10 04:13:44;;;;;;;;;;;;;;;7.09;68.30;94670.44;5063612;23;19980;-73
2023/04/10 04:15:46;;;;;;;;;;;;;;;7.07;68.29;94674.13;5064428;23;19932;-78
2023/04/10 04:17:48;;;;;;;;;;;;;;;7.05;68.32;94670.84;5065094;23;19972;-78
2023/04/10 04:19:49;;;;;;;;;;;;;;;7.02;68.42;94676.34;5066797;23;19968;-78
2023/04/10 04:21:51;;;;;;;;;;;;;;;7.15;68.35;94666.47;5040418;23;19921;-79
2023/04/10 04:23:54;;;;;;;;;;;;;;;7.24;68.39;94668.22;5039621;23;19921;-77
2023/04/10 04:25:56;;;;;;;;;;;;;;;7.33;67.75;94672.59;5041079;23;19925;-80
2023/04/10 04:27:57;;;;;;;;;;;;;;;7.44;67.72;94673.41;5041507;23;19957;-79
2023/04/10 04:29:59;;;;;;;;;;;;;;;7.46;67.55;94669.69;5066047;23;19972;-77
2023/04/10 04:32:01;;;;;;;;;;;;;;;7.52;67.01;94665.69;5040706;23;20296;-78
2023/04/10 04:34:02;;;;;;;;;;;;;;;7.57;66.84;94668.69;5065899;23;20316;-79
2023/04/10 04:36:04;;;;;;;;;;;;;;;7.59;66.84;94677.19;5066415;23;19932;-79
2023/04/10 04:38:05;;;;;;;;;;;;;;;7.71;66.25;94675.25;5066839;23;19920;-79
2023/04/10 04:40:07;;;;;;;;;;;;;;;7.76;65.87;94675.63;5068874;23;19928;-78
2023/04/10 04:42:09;;;;;;;;;;;;;;;7.71;66.42;94678.69;5018445;23;19925;-77
2023/04/10 04:44:10;;;;;;;;;;;;;;;7.66;66.27;94678.28;5040735;23;19921;-80
2023/04/10 04:46:12;;;;;;;;;;;;;;;7.69;66.47;94682.41;5065721;23;19921;-78
2023/04/10 04:48:14;;;;;;;;;;;;;;;7.85;66.34;94682.63;5066312;23;19921;-77
2023/04/10 04:50:15;;;;;;;;;;;;;;;8.07;66.00;94680.63;5066517;23;20379;-76
2023/04/10 04:52:17;;;;;;;;;;;;;;;8.30;65.12;94683.66;5066983;23;19929;-81
2023/04/10 04:54:19;;;;;;;;;;;;;;;8.46;63.96;94685.69;5068911;23;20008;-80
2023/04/10 04:56:20;;;;;;;;;;;;;;;8.59;63.79;94683.53;5043351;23;19921;-79
2023/04/10 04:58:23;;;;;;;;;;;;;;;8.73;63.36;94682.19;5068053;23;19960;-78
2023/04/10 05:00:24;;;;;;;;;;;;;;;8.86;62.12;94687.06;5042507;23;19925;-79
2023/04/10 05:02:26;;;;;;;;;;;;;;;8.97;61.97;94689.44;5043278;23;20364;-80
2023/04/10 05:04:28;;;;;;;;;;;;;;;9.07;61.73;94695.41;5070061;23;19921;-82
2023/04/10 05:06:30;;;;;;;;;;;;;;;9.15;61.29;94692.06;5021297;23;19947;-80
2023/04/10 05:08:32;;;;;;;;;;;;;;;9.27;60.40;94701.31;5067757;23;20016;-80
2023/04/10 05:10:33;;;;;;;;;;;;;;;9.33;60.55;94695.47;5043532;23;19937;-80
2023/04/10 05:12:35;;;;;;;;;;;;;;;9.34;60.26;94693.69;5069697;23;19936;-77
2023/04/10 05:14:36;;;;;;;;;;;;;;;9.34;59.97;94691.91;5044493;23;19941;-82
2023/04/10 05:16:38;;;;;;;;;;;;;;;9.36;59.73;94695.19;5069252;23;19975;-79
2023/04/10 05:18:40;;;;;;;;;;;;;;;9.33;59.42;94695.47;5071940;23;19963;-81
2023/04/10 05:20:41;;;;;;;;;;;;;;;9.33;59.73;94694.66;5070163;23;19944;-82
2023/04/10 05:22:43;;;;;;;;;;;;;;;9.36;59.81;94695.19;5045273;23;19956;-77
2023/04/10 05:24:47;;;;;;;;;;;;;;;9.37;59.01;94699.41;5021021;23;19925;-81
2023/04/10 05:26:49;;;;;;;;;;;;;;;9.34;58.63;94699.75;5071114;23;19928;-78
2023/04/10 05:28:50;;;;;;;;;;;;;;;9.34;59.10;94697.13;5068492;23;19971;-78
2023/04/10 05:30:52;;;;;;;;;;;;;;;9.47;59.16;94698.53;5042422;23;19925;-79
2023/04/10 05:32:54;;;;;;;;;;;;;;;9.57;58.53;94701.84;5068403;23;19944;-81
2023/04/10 05:34:55;;;;;;;;;;;;;;;9.64;57.42;94697.69;5072966;23;19921;-79
2023/04/10 05:36:57;;;;;;;;;;;;;;;9.67;56.90;94699.97;5069823;23;19960;-80
2023/04/10 05:38:59;;;;;;;;;;;;;;;9.75;57.80;94697.41;5069746;23;19977;-80
2023/04/10 05:41:01;;;;;;;;;;;;;;;9.81;57.37;94696.81;5020246;23;19921;-77
2023/04/10 05:43:02;;;;;;;;;;;;;;;9.84;56.63;94693.84;5070136;23;19921;-82
2023/04/10 05:45:04;;;;;;;;;;;;;;;9.77;56.55;94692.84;5042798;23;19948;-79
2023/04/10 05:47:06;;;;;;;;;;;;;;;9.63;57.01;94698.63;5043555;23;19945;-81
2023/04/10 05:49:08;;;;;;;;;;;;;;;9.21;57.46;94705.34;5042878;23;19922;-82
2023/04/10 05:51:09;;;;;;;;;;;;;;;8.98;57.88;94702.34;5068442;23;19924;-77
2023/04/10 05:53:11;;;;;;;;;;;;;;;9.06;58.24;94703.44;5042477;23;19921;-80
2023/04/10 05:55:13;;;;;;;;;;;;;;;8.86;58.77;94707.94;5068186;23;19998;-81
2023/04/10 05:57:15;;;;;;;;;;;;;;;8.81;59.62;94711.00;5068355;23;19956;-81
2023/04/10 05:59:16;;;;;;;;;;;;;;;9.02;59.19;94706.31;5067335;23;19969;-82
2023/04/10 06:01:18;;;;;;;;;;;;;;;8.99;58.99;94704.03;5042647;23;19921;-80
2023/04/10 06:03:20;;;;;;;;;;;;;;;9.16;58.90;94710.22;5066812;23;19925;-81
2023/04/10 06:05:22;;;;;;;;;;;;;;;9.28;58.81;94713.41;5068260;23;19925;-79
2023/04/10 06:07:26;;;;;;;;;;;;;;;9.41;58.27;94706.00;5069304;23;20254;-80
2023/04/10 06:09:28;;;;;;;;;;;;;;;9.28;58.37;94713.41;5041975;23;19926;-78
2023/04/10 06:11:30;;;;;;;;;;;;;;;9.08;59.04;94709.28;5042998;23;20004;-80
2023/04/10 06:13:32;;;;;;;;;;;;;;;9.15;59.56;94708.56;5068341;23;20283;-80
2023/04/10 06:15:33;;;;;;;;;;;;;;;9.37;58.79;94702.03;5068152;23;20346;-82
2023/04/10 06:17:40;;;;;;;;;;;;;;;9.48;59.32;94705.38;5067625;23;19961;-79
2023/04/10 06:19:42;;;;;;;;;;;;;;;9.67;58.02;94697.34;5069514;23;19944;-82
2023/04/10 06:21:43;;;;;;;;;;;;;;;9.79;58.17;94697.94;5068610;23;19949;-77
2023/04/10 06:23:45;;;;;;;;;;;;;;;9.89;57.90;94701.25;5069039;23;20464;-79
2023/04/10 06:25:47;;;;;;;;;;;;;;;10.09;57.32;94696.63;5067851;23;19925;-78
2023/04/10 06:27:49;;;;;;;;;;;;;;;10.27;57.01;94696.53;5067762;23;19948;-78
2023/04/10 06:29:51;;;;;;;;;;;;;;;10.39;57.37;94697.09;5042171;23;19921;-80
2023/04/10 06:31:52;;;;;;;;;;;;;;;10.28;56.67;94692.13;5067768;23;20026;-79
2023/04/10 06:33:54;;;;;;;;;;;;;;;10.07;57.30;94702.97;5069892;23;20306;-78
2023/04/10 06:35:56;;;;;;;;;;;;;;;10.02;57.85;94695.59;5043212;23;19931;-80
2023/04/10 06:37:57;;;;;;;;;;;;;;;9.97;57.60;94695.25;5070952;23;19921;-80
2023/04/10 06:40:08;;;;;;;;;;;;;;;9.98;57.45;94692.47;5042196;23;19921;-80
2023/04/10 06:42:10;;;;;;;;;;;;;;;10.04;57.35;94693.63;5068715;23;20266;-79
2023/04/10 06:44:11;;;;;;;;;;;;;;;10.12;57.37;94696.31;5069153;23;20391;-79
2023/04/10 06:46:14;;;;;;;;;;;;;;;10.25;57.31;94701.91;5068445;23;19921;-80
2023/04/10 06:48:16;;;;;;;;;;;;;;;10.30;56.25;94700.66;5069789;23;19943;-77
2023/04/10 06:50:18;;;;;;;;;;;;;;;10.25;56.44;94707.16;5069772;23;19921;-81
2023/04/10 06:52:19;;;;;;;;;;;;;;;10.33;56.76;94700.38;5043391;23;19989;-81
2023/04/10 06:54:21;;;;;;;;;;;;;;;10.25;56.01;94706.34;5043249;23;20564;-85
2023/04/10 06:56:22;;;;;;;;;;;;;;;10.19;56.54;94712.19;5068226;23;19925;-78
2023/04/10 06:58:24;;;;;;;;;;;;;;;9.92;56.50;94715.84;5066716;23;19967;-79
2023/04/10 07:00:26;;;;;;;;;;;;;;;9.90;56.90;94718.59;5041253;23;19929;-79
2023/04/10 07:02:27;;;;;;;;;;;;;;;9.99;57.10;94707.19;5067613;23;20088;-79
2023/04/10 07:04:30;;;;;;;;;;;;;;;10.15;56.85;94713.50;5067954;23;20260;-80
2023/04/10 07:06:31;;;;;;;;;;;;;;;10.33;56.18;94705.59;5068668;23;19949;-79
2023/04/10 07:08:33;;;;;;;;;;;;;;;10.47;56.21;94712.84;5042923;23;20061;-79
2023/04/10 07:10:35;;;;;;;;;;;;;;;10.57;55.15;94713.53;5068324;23;19931;-81
2023/04/10 07:12:36;;;;;;;;;;;;;;;10.65;55.53;94713.56;5068221;23;19921;-81
2023/04/10 07:14:38;;;;;;;;;;;;;;;10.74;54.88;94714.41;5068261;23;19932;-79
2023/04/10 07:16:39;;;;;;;;;;;;;;;10.78;54.29;94707.88;5043471;23;19957;-81
2023/04/10 07:18:41;;;;;;;;;;;;;;;10.83;54.42;94704.78;5065333;23;19956;-75
2023/04/10 07:20:43;;;;;;;;;;;;;;;10.87;54.01;94706.09;5039450;23;19921;-74
2023/04/10 07:22:44;;;;;;;;;;;;;;;10.84;53.84;94714.25;5066104;23;20260;-75
2023/04/10 07:24:46;;;;;;;;;;;;;;;10.78;53.98;94713.13;5065893;23;19969;-72
2023/04/10 07:26:47;;;;;;;;;;;;;;;10.67;54.11;94716.03;5065845;23;19921;-76
2023/04/10 07:28:49;;;;;;;;;;;;;;;10.61;55.02;94720.09;5065257;23;19973;-72
2023/04/10 07:30:51;;;;;;;;;;;;;;;10.58;54.75;94715.19;5037890;23;19925;-76
2023/04/10 07:32:52;;;;;;;;;;;;;;;10.64;54.12;94717.16;5064900;23;20288;-74
2023/04/10 07:34:54;;;;;;;;;;;;;;;10.66;54.03;94722.25;5040342;23;19969;-76
2023/04/10 07:36:56;;;;;;;;;;;;;;;10.61;54.26;94716.69;5040130;23;20304;-76
2023/04/10 07:38:57;;;;;;;;;;;;;;;10.70;53.85;94714.91;5065814;23;19921;-75
2023/04/10 07:40:59;;;;;;;;;;;;;;;10.59;53.99;94719.44;5016440;23;20568;-72
2023/04/10 07:43:01;;;;;;;;;;;;;;;10.52;54.39;94718.44;5038949;23;19925;-78
2023/04/10 07:45:02;;;;;;;;;;;;;;;10.57;54.57;94717.97;5039353;23;19945;-75
2023/04/10 07:47:04;;;;;;;;;;;;;;;10.73;54.29;94717.19;5064175;23;19921;-74
2023/04/10 07:49:06;;;;;;;;;;;;;;;10.77;54.15;94716.72;5066851;23;19931;-77
2023/04/10 07:51:09;;;;;;;;;;;;;;;10.89;53.60;94722.50;5042967;23;19921;-76
2023/04/10 07:53:11;;;;;;;;;;;;;;;10.84;52.97;94720.34;5067379;23;19921;-76
2023/04/10 07:55:12;;;;;;;;;;;;;;;10.69;52.97;94713.25;5016399;23;19944;-77
2023/04/10 07:57:15;;;;;;;;;;;;;;;10.63;53.96;94717.34;5066093;23;19960;-77
2023/04/10 07:59:16;;;;;;;;;;;;;;;10.55;53.90;94712.88;5064890;23;19968;-74
2023/04/10 08:01:18;;;;;;;;;;;;;;;10.48;54.63;94711.88;5039259;23;19921;-74
2023/04/10 08:03:20;;;;;;;;;;;;;;;10.66;53.98;94712.59;5063773;23;19929;-77
2023/04/10 08:05:21;;;;;;;;;;;;;;;10.82;53.69;94711.00;5064466;23;19932;-74
2023/04/10 08:07:23;;;;;;;;;;;;;;;10.98;53.10;94708.41;5065332;23;19953;-74
2023/04/10 08:09:24;;;;;;;;;;;;;;;10.99;52.71;94704.81;5065540;23;19973;-75
2023/04/10 08:11:27;;;;;;;;;;;;;;;10.95;53.36;94705.28;5065418;23;19924;-74
2023/04/10 08:13:28;;;;;;;;;;;;;;;10.60;53.67;94710.63;5066716;23;19987;-80
2023/04/10 08:15:30;;;;;;;;;;;;;;;10.72;54.34;94718.19;5069852;23;19925;-79
2023/04/10 08:17:32;;;;;;;;;;;;;;;10.64;54.17;94717.16;5069627;23;19921;-79
2023/04/10 08:19:33;;;;;;;;;;;;;;;10.72;54.22;94718.19;5068401;23;19924;-80
2023/04/10 08:21:36;;;;;;;;;;;;;;;10.66;53.31;94709.16;5069296;23;19921;-79
2023/04/10 08:23:38;;;;;;;;;;;;;;;10.65;53.46;94715.38;5068193;23;19927;-80
2023/04/10 08:25:39;;;;;;;;;;;;;;;10.58;53.55;94715.19;5069384;23;19924;-80
2023/04/10 08:27:41;;;;;;;;;;;;;;;10.77;53.86;94715.91;5070116;23;19921;-81
2023/04/10 08:29:42;;;;;;;;;;;;;;;10.88;53.37;94702.47;5042517;23;19937;-79
2023/04/10 08:31:44;;;;;;;;;;;;;;;10.90;52.69;94705.75;5043614;23;19921;-81
2023/04/10 08:33:45;;;;;;;;;;;;;;;11.08;52.75;94710.91;5068723;23;20270;-80
2023/04/10 08:35:47;;;;;;;;;;;;;;;11.29;52.70;94718.28;5065866;23;19925;-75
2023/04/10 08:37:49;;;;;;;;;;;;;;;11.13;52.36;94703.34;5064884;23;20003;-76
2023/04/10 08:40:11;;;;;;;;;;;;;;;11.18;52.89;94710.72;5065032;23;19924;-76
2023/04/10 08:42:12;;;;;;;;;;;;;;;11.21;53.00;94702.56;5039087;23;19977;-75
2023/04/10 08:44:14;;;;;;;;;;;;;;;11.34;52.57;94708.13;5065325;23;19972;-73
2023/04/10 08:46:16;;;;;;;;;;;;;;;11.53;52.39;94700.91;5065248;23;20308;-76
2023/04/10 08:48:18;;;;;;;;;;;;;;;11.47;51.50;94697.97;5064221;23;19921;-75
2023/04/10 08:50:20;;;;;;;;;;;;;;;11.54;51.92;94697.31;5064739;23;19976;-73
2023/04/10 08:52:24;;;;;;;;;;;;;;;11.65;52.15;94696.97;5039060;23;20014;-77
2023/04/10 08:54:29;;;;;;;;;;;;;;;11.67;51.50;94692.38;5039042;23;19921;-75
2023/04/10 08:56:32;;;;;;;;;;;;;;;11.62;51.51;94694.69;5040326;23;19930;-76
2023/04/10 08:58:33;;;;;;;;;;;;;;;11.50;51.85;94696.81;5064002;23;19976;-75
2023/04/10 09:00:37;;;;;;;;;;;;;;;11.47;51.73;94694.53;5039054;23;19921;-74
2023/04/10 09:02:40;;;;;;;;;;;;;;;11.51;51.87;94697.63;5039644;23;19921;-73
2023/04/10 09:04:48;;;;;;;;;;;;;;;11.57;51.80;94692.56;5065095;23;19996;-75
2023/04/10 09:06:50;;;;;;;;;;;;;;;11.57;51.58;94691.72;5065618;23;20003;-75
2023/04/10 09:08:52;;;;;;;;;;;;;;;11.52;52.15;94686.16;5065839;23;19925;-76
2023/04/10 09:10:53;;;;;;;;;;;;;;;11.47;51.79;94686.66;5040025;23;19929;-75
2023/04/10 09:12:56;;;;;;;;;;;;;;;11.54;51.96;94689.44;5038831;23;19922;-75
2023/04/10 09:14:58;;;;;;;;;;;;;;;11.57;51.53;94683.84;5038376;23;19922;-74
2023/04/10 09:17:10;;;;;;;;;;;;;;;11.64;51.21;94682.22;5063617;23;19921;-72
2023/04/10 09:19:11;;;;;;;;;;;;;;;11.65;51.72;94674.16;5039424;23;19945;-76
2023/04/10 09:21:14;;;;;;;;;;;;;;;11.66;51.99;94678.44;5065084;23;19941;-75
2023/04/10 09:23:20;;;;;;;;;;;;;;;11.68;51.60;94673.03;5064806;23;19940;-78
2023/04/10 09:25:34;;;;;;;;;;;;;;;11.75;51.69;94675.81;5065122;23;19924;-74
2023/04/10 09:27:38;;;;;;;;;;;;;;;11.86;51.01;94668.38;5039476;23;19921;-76
2023/04/10 09:29:41;;;;;;;;;;;;;;;11.96;51.25;94675.28;5064770;23;19967;-75
2023/04/10 09:31:43;;;;;;;;;;;;;;;11.76;49.79;94673.00;5038580;23;19922;-75
2023/04/10 09:33:45;;;;;;;;;;;;;;;11.60;49.33;94673.03;5064239;23;20038;-75
2023/04/10 09:35:46;;;;;;;;;;;;;;;11.68;50.35;94660.72;5039139;23;19921;-75
2023/04/10 09:37:48;;;;;;;;;;;;;;;11.80;49.90;94665.63;5065350;23;19928;-76
2023/04/10 09:39:49;;;;;;;;;;;;;;;11.83;49.94;94666.13;5065981;23;19921;-73
2023/04/10 09:41:52;;;;;;;;;;;;;;;11.91;49.28;94667.91;5041679;23;19965;-74
2023/04/10 09:44:10;;;;;;;;;;;;;;;11.80;49.21;94663.81;5041766;23;19921;-76
2023/04/10 09:46:11;;;;;;;;;;;;;;;11.91;49.57;94669.72;5067034;23;19925;-77
2023/04/10 09:48:13;;;;;;;;;;;;;;;11.84;49.23;94669.56;5041354;23;20012;-83
2023/04/10 09:50:15;;;;;;;;;;;;;;;12.02;49.58;94669.38;5069346;23;19995;-78
2023/04/10 09:52:17;;;;;;;;;;;;;;;12.21;49.94;94674.22;5047549;23;19921;-81
2023/04/10 09:54:20;;;;;;;;;;;;;;;12.10;48.68;94666.72;5043831;23;20292;-82
2023/04/10 09:56:21;;;;;;;;;;;;;;;11.65;48.85;94663.66;5045602;23;19936;-81
2023/04/10 09:58:23;;;;;;;;;;;;;;;11.54;49.53;94661.41;5044075;23;19929;-83
2023/04/10 10:00:25;;;;;;;;;;;;;;;11.63;49.95;94668.25;5068731;23;19975;-80
2023/04/10 10:02:30;;;;;;;;;;;;;;;11.51;48.57;94664.34;5070058;23;19925;-80
2023/04/10 10:04:32;;;;;;;;;;;;;;;11.48;48.17;94657.63;5044737;23;20001;-80
2023/04/10 10:06:33;;;;;;;;;;;;;;;11.42;48.22;94647.81;5072224;23;19968;-80
2023/04/10 10:08:35;;;;;;;;;;;;;;;11.60;48.68;94659.91;5045911;23;19922;-81
2023/04/10 10:10:44;;;;;;;;;;;;;;;11.76;48.23;94659.88;5078973;23;20225;-80
2023/04/10 10:12:53;;;;;;;;;;;;;;;11.89;48.07;94656.75;5031017;23;19922;-81
2023/04/10 10:14:55;;;;;;;;;;;;;;;12.07;47.44;94654.75;5048581;23;19925;-79
2023/04/10 10:16:57;;;;;;;;;;;;;;;12.17;47.78;94653.72;5071174;23;20328;-85
2023/04/10 10:19:08;;;;;;;;;;;;;;;12.15;47.30;94646.00;5045378;23;20304;-82
2023/04/10 10:21:10;;;;;;;;;;;;;;;12.28;47.89;94645.47;5074527;23;20000;-82
2023/04/10 10:23:13;;;;;;;;;;;;;;;12.34;47.24;94636.91;5058088;23;19922;-84
2023/04/10 10:25:15;;;;;;;;;;;;;;;12.45;46.46;94631.31;5021006;23;20538;-81
2023/04/10 10:27:17;;;;;;;;;;;;;;;12.46;46.72;94640.81;5021642;23;19922;-79
2023/04/10 10:29:18;;;;;;;;;;;;;;;12.43;46.57;94637.69;5072487;23;19933;-82
2023/04/10 10:31:22;;;;;;;;;;;;;;;12.46;46.75;94637.38;5070799;23;19924;-84
2023/04/10 10:33:24;;;;;;;;;;;;;;;12.32;46.06;94633.63;5046657;23;20032;-82
2023/04/10 10:35:26;;;;;;;;;;;;;;;12.20;47.01;94635.84;5045312;23;19928;-85
2023/04/10 10:37:30;;;;;;;;;;;;;;;12.19;47.28;94634.19;5071399;23;19921;-83
2023/04/10 10:39:34;;;;;;;;;;;;;;;12.28;47.33;94629.72;5023553;23;19930;-82
2023/04/10 10:42:04;;;;;;;;;;;;;;;12.40;47.04;94632.78;5046449;23;19921;-83
2023/04/10 10:44:20;;;;;;;;;;;;;;;12.51;46.64;94627.16;5039847;23;20000;-76